Nearby METAR Reports

 

KOAK - Oakland, California, USA
Distance from station: SSW 6mi, 9km
Updated: Mon, 21-Aug-2017 1:53pm PDT
Few Clouds
Few Clouds
 Wind from WNW
Wind: WNW 13 mph , 20 km/h
Temperature: 72°F , 22°C
Dew Point: 61°F , 16°C
Humidity: 69%
Barometer: 30.02 inHg , 1016.6 hPa
Clouds: Few Clouds
Visibility: 10 miles , 16 km
Cloud details: Few Clouds 1500 ft
2017/08/21 20:53 KOAK 212053Z 30011KT 10SM FEW015 22/16 A3002 RMK AO2 SLP164 T02170156 58002
KHWD - Hayward, California, USA
Distance from station: SSE 8mi, 12km
Updated: Mon, 21-Aug-2017 1:54pm PDT
Clear
Clear
 Wind from WNW
Wind: WNW 9 mph , 15 km/h
Temperature: 73°F , 23°C
Dew Point: 55°F , 13°C
Humidity: 53%
Barometer: 30.01 inHg , 1016.3 hPa
Clouds: Clear
Visibility: 10 miles , 16 km
2017/08/21 20:54 KHWD 212054Z 30008KT 10SM CLR 23/13 A3001 RMK AO2 SLP171 T02330128 58003
KSFO - San Francisco, California, USA
Distance from station: SW 15mi, 25km
Updated: Mon, 21-Aug-2017 1:56pm PDT
Clear
Clear
 Wind from varies
Wind: varies 3 mph , 6 km/h
Temperature: 70°F , 21°C
Dew Point: 57°F , 14°C
Humidity: 64%
Barometer: 30.01 inHg , 1016.3 hPa
Clouds: Clear
Visibility: 10 miles , 16 km
2017/08/21 20:56 KSFO 212056Z VRB03KT 10SM CLR 21/14 A3001 RMK AO2 SLP161 T02110139 58003
 
KCCR - Concord, California, USA
Distance from station: NNE 17mi, 27km
Updated: Mon, 21-Aug-2017 1:53pm PDT
Clear
Clear
 Wind from W
Wind: W 15 mph , 24 km/h, Gust: 20 mph , 31 km/h
Temperature: 75°F , 24°C
Dew Point: 57°F , 14°C
Humidity: 54%
Barometer: 29.99 inHg , 1015.6 hPa
Clouds: Clear
Visibility: 10 miles , 16 km
2017/08/21 20:53 KCCR 212053Z 26013G17KT 10SM CLR 24/14 A2999 RMK AO2 SLP142 T02390144 58007
KSQL - San Carlos Airpo, California, USA
Distance from station: SSW 18mi, 29km
Updated: Mon, 21-Aug-2017 1:50pm PDT
Few Clouds
Few Clouds
 Wind from NW
Wind: NW 8 mph , 13 km/h
Temperature: 75°F , 24°C
Dew Point: 59°F , 15°C
Humidity: 57%
Barometer: 30.01 inHg , 1016.3 hPa
Clouds: Few Clouds
Visibility: 10 miles , 16 km
Cloud details: Few Clouds 2300 ft
2017/08/21 20:50 KSQL 212050Z 32007KT 10SM FEW023 24/15 A3001
KLVK - Livermore, California, USA
Distance from station: ESE 20mi, 31km
Updated: Mon, 21-Aug-2017 1:53pm PDT
Clear
Clear
 Wind from WNW
Wind: WNW 12 mph , 19 km/h
Temperature: 79°F , 26°C
Dew Point: 59°F , 15°C
Humidity: 51%
Barometer: 29.98 inHg , 1015.2 hPa
Clouds: Clear
Visibility: 10 miles , 16 km
2017/08/21 20:53 KLVK 212053Z 30010KT 10SM CLR 26/15 A2998 RMK AO2 SLP148 T02610150 57009 $
 
KPAO - Palo Alto, California, USA
Distance from station: S 21mi, 34km
Updated: Mon, 21-Aug-2017 1:47pm PDT
Clear
Clear
 Wind from N
Wind: N 13 mph , 20 km/h
Temperature: 75°F , 24°C
Dew Point: 63°F , 17°C
Humidity: 65%
Barometer: 30.00 inHg , 1015.9 hPa
Clouds: Clear
Visibility: 10 miles , 16 km
2017/08/21 20:47 KPAO 212047Z 35011KT 10SM SKC 24/17 A3000
KHAF - Half Moon Bay, California, USA
Distance from station: SW 25mi, 41km
Updated: Mon, 21-Aug-2017 2:15pm PDT
Overcast
Overcast
 Wind from S
Wind: S 10 mph , 17 km/h, Gust: 16 mph , 26 km/h
Temperature: 66°F , 19°C
Dew Point: 59°F , 15°C
Humidity: 78%
Barometer: 30.02 inHg , 1016.6 hPa
Clouds: Overcast
Visibility: 10 miles , 16 km
Cloud details: Overcast 1800 ft
2017/08/21 21:15 KHAF 212115Z AUTO 19009G14KT 10SM OVC018 19/15 A3002 RMK AO2
KNUQ - Moffett Nas/Mtn, California, USA
Distance from station: SSE 26mi, 42km
Updated: Mon, 21-Aug-2017 1:56pm PDT
Clear
Clear
 Wind from N
Wind: N 14 mph , 22 km/h
Temperature: 75°F , 24°C
Dew Point: 61°F , 16°C
Humidity: 61%
Barometer: 30.00 inHg , 1015.9 hPa
Clouds: Clear
Visibility: 10 miles , 16 km
2017/08/21 20:56 KNUQ 212056Z 35012KT 10SM CLR 24/16 A3000 RMK AO2 SLP162 T02390161 56007
 
KAPC - Napa, California, USA
Distance from station: NNW 30mi, 49km
Updated: Mon, 21-Aug-2017 1:54pm PDT
Clear
Clear
 Wind from SSW
Wind: SSW 14 mph , 22 km/h
Temperature: 73°F , 23°C
Dew Point: 57°F , 14°C
Humidity: 57%
Barometer: 30.01 inHg , 1016.3 hPa
Clouds: Clear
Visibility: 10 miles , 16 km
2017/08/21 20:54 KAPC 212054Z 21012KT 10SM CLR 23/14 A3001 RMK AO2 SLP153 T02280144 58005
KSJC - San Jose, California, USA
Distance from station: SSE 31mi, 50km
Updated: Mon, 21-Aug-2017 1:53pm PDT
Few Clouds
Few Clouds
 Wind from varies
Wind: varies 7 mph , 11 km/h
Temperature: 81°F , 27°C
Heat Index: 81°F , 27°C
Dew Point: 59°F , 15°C
Humidity: 48%
Barometer: 29.98 inHg , 1015.2 hPa
Clouds: Few Clouds
Visibility: 10 miles , 16 km
Cloud details: Few Clouds 1300 ft
Few Clouds 8500 ft
2017/08/21 20:53 KSJC 212053Z VRB06KT 10SM FEW013 FEW085 27/15 A2998 RMK AO2 SLP152 T02720150 58011
KDVO - Novato/Gnoss Fld, California, USA
Distance from station: NW 34mi, 54km
Updated: Mon, 21-Aug-2017 2:15pm PDT
Clear
Clear
 Wind from SW
Wind: SW 10 mph , 17 km/h, Gust: 17 mph , 28 km/h
Temperature: 73°F , 23°C
Dew Point: 59°F , 15°C
Humidity: 61%
Barometer: 30.01 inHg , 1016.3 hPa
Clouds: Clear
Visibility: 10 miles , 16 km
2017/08/21 21:15 KDVO 212115Z AUTO 22009G15KT 10SM CLR 23/15 A3001 RMK AO2
 
KRHV - San Jose/Reid, California, USA
Distance from station: SSE 37mi, 59km
Updated: Mon, 21-Aug-2017 1:59pm PDT
Clear
Clear
 Wind from varies
Wind: varies 7 mph , 11 km/h
Temperature: 82°F , 28°C
Heat Index: 82°F , 28°C
Dew Point: 59°F , 15°C
Humidity: 45%
Barometer: 30.00 inHg , 1015.9 hPa
Clouds: Clear
Visibility: 10 miles , 16 km
2017/08/21 20:59 KRHV 212059Z VRB06KT 10SM SKC 28/15 A3000
KSUU - Travis Afb/Fairf, California, USA
Distance from station: NNE 37mi, 59km
Updated: Mon, 21-Aug-2017 1:58pm PDT
Clear
Clear
 Wind from WSW
Wind: WSW 24 mph , 39 km/h, Gust: 30 mph , 48 km/h
Temperature: 75°F , 24°C
Dew Point: 57°F , 14°C
Humidity: 54%
Barometer: 29.94 inHg , 1013.9 hPa
Clouds: Clear
Visibility: 10 miles , 16 km
2017/08/21 20:58 KSUU 212058Z AUTO 24021G26KT 10SM CLR 24/14 A2994 RMK AO2 PK WND 23029/04 SLP145 T02420144 58006 $
KO69 - Petaluma, California, USA
Distance from station: NW 41mi, 66km
Updated: Mon, 21-Aug-2017 2:15pm PDT

 
Temperature: 70°F , 21°C
Dew Point: 59°F , 15°C
Humidity: 69%
Visibility: 10 miles , 16 km
2017/08/21 21:15 KO69 212115Z AUTO 10SM 21/15 RMK A01
 
KVCB - Vacaville, California, USA
Distance from station: NNE 44mi, 71km
Updated: Mon, 21-Aug-2017 1:53pm PDT
Clear
Clear
 Wind from S
Wind: S 8 mph , 13 km/h
Temperature: 84°F , 29°C
Heat Index: 83°F , 28°C
Dew Point: 57°F , 14°C
Humidity: 40%
Barometer: 29.95 inHg , 1014.2 hPa
Clouds: Clear
Visibility: 10 miles , 16 km
2017/08/21 20:53 KVCB 212053Z AUTO 19007KT 10SM CLR 29/14 A2995 RMK AO2 SLP141 T02940144 58003